Time;durP1;ratioP1;P1;durP2;ratioP2;P2;SDS_P1;SDS_P2;PMS_P1;PMS_P2;Temp;Humidity;BMP_temperature;BMP_pressure;BME280_temperature;BME280_humidity;BME280_pressure;Samples;Min_cycle;Max_cycle;Signal;HPM_P1;HPM_P2
2024/01/21 00:01:29;;;;;;;8.97;2.47;;;30.00;58.90;;;;;;5055405;28;20190;-79
2024/01/21 00:03:56;;;;;;;8.67;2.47;;;30.00;58.40;;;;;;5065114;28;20245;-81
2024/01/21 00:06:24;;;;;;;6.33;2.20;;;30.30;58.90;;;;;;5059884;28;20184;-79
2024/01/21 00:08:51;;;;;;;9.60;2.50;;;30.30;57.60;;;;;;5063836;28;20176;-76
2024/01/21 00:11:18;;;;;;;4.70;2.10;;;30.30;57.10;;;;;;5067083;28;20191;-81
2024/01/21 00:13:46;;;;;;;6.80;2.37;;;30.30;57.50;;;;;;5070615;28;20237;-78
2024/01/21 00:16:13;;;;;;;8.10;2.22;;;30.50;57.00;;;;;;5069209;28;20308;-78
2024/01/21 00:18:40;;;;;;;8.90;2.33;;;30.70;56.80;;;;;;5066894;28;20275;-80
2024/01/21 00:21:08;;;;;;;7.82;2.13;;;30.80;56.00;;;;;;5062700;28;20643;-75
2024/01/21 00:23:35;;;;;;;5.00;1.85;;;30.90;55.30;;;;;;5061091;28;20309;-79
2024/01/21 00:26:02;;;;;;;8.87;2.40;;;30.80;54.10;;;;;;5068972;28;20210;-78
2024/01/21 00:28:30;;;;;;;5.95;1.95;;;31.20;54.40;;;;;;5052345;28;20187;-75
2024/01/21 00:30:57;;;;;;;5.47;2.22;;;31.40;53.20;;;;;;5061072;28;20180;-81
2024/01/21 00:33:24;;;;;;;5.78;1.70;;;31.50;52.30;;;;;;5058633;28;20662;-79
2024/01/21 00:35:52;;;;;;;6.13;2.13;;;31.50;51.60;;;;;;5070925;28;20318;-79
2024/01/21 00:38:19;;;;;;;5.60;2.20;;;31.50;52.20;;;;;;5058175;28;20215;-80
2024/01/21 00:40:47;;;;;;;5.80;2.20;;;31.70;51.40;;;;;;5071187;28;20194;-80
2024/01/21 00:43:14;;;;;;;4.93;1.83;;;31.90;51.30;;;;;;5057402;28;20191;-75
2024/01/21 00:45:41;;;;;;;6.00;2.10;;;32.00;50.10;;;;;;5067338;28;20188;-76
2024/01/21 00:48:09;;;;;;;11.48;2.53;;;32.20;50.10;;;;;;5056875;28;20635;-78
2024/01/21 00:50:36;;;;;;;5.93;2.28;;;32.50;48.80;;;;;;5056064;28;20235;-79
2024/01/21 00:53:03;;;;;;;4.82;1.75;;;32.70;47.10;;;;;;5067185;28;20545;-81
2024/01/21 00:55:31;;;;;;;5.10;1.60;;;32.80;47.40;;;;;;5056973;28;20341;-78
2024/01/21 00:57:58;;;;;;;7.15;1.98;;;33.10;45.90;;;;;;5055921;28;20232;-76
2024/01/21 01:00:27;;;;;;;5.85;1.42;;;32.80;44.80;;;;;;5059531;28;20192;-77
2024/01/21 01:02:54;;;;;;;5.93;1.52;;;32.90;45.50;;;;;;5059085;28;20334;-77
2024/01/21 01:05:22;;;;;;;3.60;1.50;;;33.00;42.40;;;;;;5060987;28;20179;-81
2024/01/21 01:07:49;;;;;;;5.47;1.52;;;33.20;41.30;;;;;;5060511;28;20342;-78
2024/01/21 01:10:16;;;;;;;4.00;1.52;;;33.30;40.20;;;;;;5061264;28;20260;-78
2024/01/21 01:12:44;;;;;;;3.40;1.40;;;33.60;41.90;;;;;;5066810;28;20275;-79
2024/01/21 01:15:15;;;;;;;3.78;1.50;;;33.70;39.30;;;;;;5058955;28;20219;-74
2024/01/21 01:17:43;;;;;;;4.78;1.13;;;33.70;37.90;;;;;;5059914;28;20241;-77
2024/01/21 01:20:11;;;;;;;2.53;1.20;;;33.90;34.90;;;;;;5057292;28;20218;-74
2024/01/21 01:22:39;;;;;;;5.60;1.33;;;34.00;35.60;;;;;;5069926;28;20179;-80
2024/01/21 01:25:07;;;;;;;7.22;1.63;;;33.80;36.90;;;;;;5058350;28;20648;-78
2024/01/21 01:27:34;;;;;;;2.95;1.33;;;33.90;36.50;;;;;;5070672;28;20210;-80
2024/01/21 01:30:01;;;;;;;4.60;1.25;;;34.30;36.30;;;;;;5066330;28;20650;-78
2024/01/21 01:32:28;;;;;;;5.18;1.33;;;34.40;35.90;;;;;;5059941;28;20646;-76
2024/01/21 01:34:56;;;;;;;4.07;1.00;;;34.40;34.20;;;;;;5068282;28;20242;-75
2024/01/21 01:37:23;;;;;;;3.65;1.50;;;34.50;34.50;;;;;;5057412;28;20286;-78
2024/01/21 01:39:51;;;;;;;3.58;1.33;;;34.30;34.50;;;;;;5057514;28;20195;-84
2024/01/21 01:42:18;;;;;;;3.13;1.30;;;34.50;34.70;;;;;;5060086;28;20187;-82
2024/01/21 01:44:45;;;;;;;4.43;1.23;;;34.40;34.30;;;;;;5057732;28;20548;-78
2024/01/21 01:47:13;;;;;;;3.25;1.75;;;34.30;34.00;;;;;;5057831;28;20184;-81
2024/01/21 01:49:42;;;;;;;3.17;1.40;;;34.70;34.00;;;;;;5057356;28;20188;-78
2024/01/21 01:52:16;;;;;;;4.50;1.40;;;35.00;33.70;;;;;;5065170;28;20180;-76
2024/01/21 01:54:46;;;;;;;5.00;1.40;;;35.10;33.00;;;;;;5072029;28;20175;-76
2024/01/21 01:57:15;;;;;;;2.90;0.90;;;35.40;32.60;;;;;;5058214;28;20263;-79
2024/01/21 01:59:43;;;;;;;3.33;1.30;;;35.50;31.00;;;;;;5063823;28;20665;-81
2024/01/21 02:02:11;;;;;;;2.22;1.10;;;35.60;31.10;;;;;;5068677;28;20554;-77
2024/01/21 02:04:39;;;;;;;3.15;1.15;;;35.40;31.30;;;;;;5071219;28;20639;-77
2024/01/21 02:07:06;;;;;;;4.35;1.48;;;35.60;31.60;;;;;;5065761;28;20659;-80
2024/01/21 02:09:33;;;;;;;2.47;0.90;;;35.80;30.80;;;;;;5056411;28;20271;-75
2024/01/21 02:12:01;;;;;;;2.90;1.52;;;35.90;30.80;;;;;;5058690;28;20684;-79
2024/01/21 02:14:28;;;;;;;2.95;1.33;;;36.10;29.90;;;;;;5066906;28;20187;-77
2024/01/21 02:16:56;;;;;;;3.65;1.30;;;36.10;29.80;;;;;;5061984;28;20186;-76
2024/01/21 02:19:32;;;;;;;2.17;1.10;;;35.90;29.50;;;;;;5063661;28;20201;-80
2024/01/21 02:21:59;;;;;;;2.92;1.17;;;35.80;30.10;;;;;;5063698;28;20194;-74
2024/01/21 02:24:30;;;;;;;2.45;1.08;;;36.10;29.70;;;;;;5063943;28;20199;-78
2024/01/21 02:26:58;;;;;;;3.00;1.10;;;36.40;29.40;;;;;;5059155;28;20265;-79
2024/01/21 02:29:26;;;;;;;4.47;1.40;;;36.60;28.50;;;;;;5067923;28;20535;-82
2024/01/21 02:31:54;;;;;;;4.22;1.13;;;36.40;28.10;;;;;;5061132;28;20192;-78
2024/01/21 02:34:21;;;;;;;4.07;0.90;;;36.60;28.10;;;;;;5062297;28;20759;-79
2024/01/21 02:36:49;;;;;;;2.58;1.00;;;36.60;27.70;;;;;;5070640;28;20218;-83
2024/01/21 02:39:16;;;;;;;3.85;1.05;;;36.80;27.00;;;;;;5068705;28;20211;-78
2024/01/21 02:41:45;;;;;;;1.10;0.90;;;36.80;27.00;;;;;;5058609;28;20180;-81
2024/01/21 02:44:12;;;;;;;3.30;1.17;;;37.00;27.10;;;;;;5073522;28;20235;-81
2024/01/21 02:46:39;;;;;;;1.88;1.00;;;36.90;27.00;;;;;;5073564;28;20167;-77
2024/01/21 02:49:16;;;;;;;4.75;1.00;;;36.90;26.90;;;;;;5074237;28;20199;-78
2024/01/21 02:51:44;;;;;;;3.83;1.10;;;37.10;26.40;;;;;;5072456;28;20190;-81
2024/01/21 02:54:11;;;;;;;2.53;0.90;;;37.20;26.80;;;;;;5074404;28;20167;-77
2024/01/21 02:56:38;;;;;;;2.33;1.10;;;37.30;26.20;;;;;;5075818;28;20179;-77
2024/01/21 02:59:06;;;;;;;3.25;1.33;;;37.80;26.20;;;;;;5075567;28;20215;-74
2024/01/21 03:01:36;;;;;;;1.60;1.00;;;38.10;25.40;;;;;;5065185;28;20179;-79
2024/01/21 03:04:03;;;;;;;2.58;0.90;;;38.10;24.90;;;;;;5078196;28;20573;-81
2024/01/21 03:06:31;;;;;;;2.00;0.90;;;37.90;25.10;;;;;;5072840;28;20206;-84
2024/01/21 03:08:58;;;;;;;3.15;0.98;;;37.80;25.50;;;;;;5072603;28;20579;-80
2024/01/21 03:11:25;;;;;;;3.00;0.90;;;38.00;25.00;;;;;;5072423;28;20183;-78
2024/01/21 03:13:53;;;;;;;3.58;0.82;;;38.00;25.10;;;;;;5066160;28;20211;-79
2024/01/21 03:16:20;;;;;;;3.75;1.10;;;38.30;24.40;;;;;;5073641;28;20190;-78
2024/01/21 03:18:48;;;;;;;1.48;0.90;;;38.40;24.50;;;;;;5073239;28;20328;-76
2024/01/21 03:21:15;;;;;;;4.05;1.10;;;38.80;24.00;;;;;;5073429;28;20712;-83
2024/01/21 03:23:45;;;;;;;5.15;1.17;;;38.90;24.00;;;;;;5074499;28;20196;-80
2024/01/21 03:26:12;;;;;;;1.45;0.70;;;39.20;24.10;;;;;;5070708;28;20273;-79
2024/01/21 03:28:40;;;;;;;3.97;1.00;;;39.30;23.30;;;;;;5075193;28;20179;-77
2024/01/21 03:31:07;;;;;;;2.70;0.75;;;38.80;23.60;;;;;;5073675;28;20183;-81
2024/01/21 03:33:34;;;;;;;3.33;1.00;;;39.00;24.00;;;;;;5074231;28;20176;-79
2024/01/21 03:36:03;;;;;;;2.03;0.82;;;39.20;23.10;;;;;;5072076;28;20581;-80
2024/01/21 03:38:30;;;;;;;4.00;1.60;;;39.20;23.30;;;;;;5074106;28;20245;-81
2024/01/21 03:40:57;;;;;;;5.63;1.67;;;39.30;28.30;;;;;;5073888;28;20186;-80
2024/01/21 03:43:26;;;;;;;5.35;1.80;;;39.00;29.70;;;;;;5069544;28;20187;-81
2024/01/21 03:45:53;;;;;;;7.80;1.70;;;39.10;29.80;;;;;;5072255;28;20187;-82
2024/01/21 03:48:21;;;;;;;3.65;1.33;;;38.80;30.20;;;;;;5071648;28;20588;-82
2024/01/21 03:50:49;;;;;;;5.80;1.80;;;39.60;27.80;;;;;;5083083;28;20202;-78
2024/01/21 03:53:16;;;;;;;4.10;1.50;;;39.40;27.40;;;;;;5082269;28;20252;-78
2024/01/21 03:55:43;;;;;;;4.65;1.30;;;39.30;28.80;;;;;;5088359;28;20178;-80
2024/01/21 03:58:11;;;;;;;4.80;1.40;;;39.20;28.60;;;;;;5071382;28;20246;-81
2024/01/21 04:00:38;;;;;;;4.38;1.67;;;39.30;28.20;;;;;;5073135;28;20183;-79
2024/01/21 04:03:05;;;;;;;8.07;1.92;;;39.10;28.90;;;;;;5079316;28;20191;-84
2024/01/21 04:05:33;;;;;;;6.82;1.92;;;38.70;30.50;;;;;;5072780;28;20183;-80
2024/01/21 04:08:00;;;;;;;8.32;2.05;;;39.10;31.60;;;;;;5074255;28;20673;-79
2024/01/21 04:10:28;;;;;;;6.93;2.10;;;39.30;33.50;;;;;;5077664;28;20194;-79
2024/01/21 04:12:55;;;;;;;4.13;1.77;;;38.40;34.20;;;;;;5074390;28;20179;-81
2024/01/21 04:15:22;;;;;;;3.60;1.42;;;38.90;33.10;;;;;;5069396;28;20240;-79
2024/01/21 04:17:50;;;;;;;7.72;2.30;;;38.90;30.00;;;;;;5072733;28;20231;-77
2024/01/21 04:20:17;;;;;;;4.70;2.00;;;39.40;32.90;;;;;;5087682;28;20183;-79
2024/01/21 04:22:44;;;;;;;6.15;1.70;;;39.40;31.90;;;;;;5073721;28;20646;-78
2024/01/21 04:25:12;;;;;;;8.25;1.95;;;38.40;34.00;;;;;;5072039;28;20183;-82
2024/01/21 04:27:39;;;;;;;9.60;2.25;;;38.80;33.80;;;;;;5063689;28;20199;-78
2024/01/21 04:30:07;;;;;;;5.90;1.77;;;38.50;34.60;;;;;;5073437;28;20182;-83
2024/01/21 04:32:37;;;;;;;5.50;1.60;;;38.30;33.60;;;;;;5078310;28;20191;-77
2024/01/21 04:35:05;;;;;;;5.63;2.22;;;39.10;33.70;;;;;;5089033;28;20316;-79
2024/01/21 04:37:33;;;;;;;4.05;1.80;;;39.60;32.60;;;;;;5076046;28;20733;-77
2024/01/21 04:40:00;;;;;;;6.32;1.80;;;39.40;31.70;;;;;;5074732;28;20242;-77
2024/01/21 04:42:27;;;;;;;4.90;1.92;;;39.70;31.10;;;;;;5076477;28;20637;-70
2024/01/21 04:44:55;;;;;;;8.23;1.60;;;39.60;31.10;;;;;;5060183;28;20195;-73
2024/01/21 04:47:23;;;;;;;5.32;1.88;;;40.00;31.60;;;;;;5074027;28;20206;-71
2024/01/21 04:49:50;;;;;;;6.63;2.03;;;39.40;31.10;;;;;;5084612;28;20186;-72
2024/01/21 04:52:17;;;;;;;6.53;2.08;;;39.70;32.00;;;;;;5076725;28;20187;-71
2024/01/21 04:54:45;;;;;;;8.40;1.95;;;39.50;31.40;;;;;;5082982;28;20183;-72
2024/01/21 04:57:12;;;;;;;6.35;1.70;;;39.50;32.40;;;;;;5090777;28;20214;-74
2024/01/21 04:59:40;;;;;;;7.30;2.17;;;39.80;32.40;;;;;;5083684;28;20195;-71
2024/01/21 05:02:07;;;;;;;7.38;2.13;;;40.00;31.30;;;;;;5087149;28;20185;-71
2024/01/21 05:04:34;;;;;;;6.82;1.77;;;40.40;31.40;;;;;;5077187;28;20183;-72
2024/01/21 05:07:01;;;;;;;5.68;1.67;;;40.10;31.70;;;;;;5086822;28;20588;-71
2024/01/21 05:09:29;;;;;;;9.57;2.40;;;40.30;30.50;;;;;;5082971;28;20265;-72
2024/01/21 05:11:56;;;;;;;4.55;1.80;;;40.20;31.90;;;;;;5075500;28;20183;-71
2024/01/21 05:14:23;;;;;;;4.95;1.30;;;40.30;31.00;;;;;;5071242;28;20175;-70
2024/01/21 05:16:51;;;;;;;8.23;1.95;;;39.60;31.70;;;;;;5071578;28;20653;-74
2024/01/21 05:19:18;;;;;;;7.47;1.98;;;39.20;33.00;;;;;;5083146;28;20219;-70
2024/01/21 05:21:45;;;;;;;3.75;1.63;;;39.50;32.90;;;;;;5087734;28;20174;-72
2024/01/21 05:24:13;;;;;;;9.18;2.00;;;39.30;32.40;;;;;;5080886;28;20187;-70
2024/01/21 05:26:49;;;;;;;6.38;1.80;;;39.40;33.70;;;;;;5076197;28;20217;-72
2024/01/21 05:29:16;;;;;;;7.32;1.90;;;39.30;34.10;;;;;;5075728;28;20236;-73
2024/01/21 05:31:47;;;;;;;3.63;1.40;;;39.30;33.60;;;;;;5075028;28;20720;-72
2024/01/21 05:34:15;;;;;;;6.40;1.58;;;39.00;33.30;;;;;;5087330;28;20219;-71
2024/01/21 05:36:42;;;;;;;5.82;1.55;;;39.90;31.30;;;;;;5075444;28;20195;-71
2024/01/21 05:39:09;;;;;;;6.45;2.10;;;39.30;32.50;;;;;;5079148;28;20215;-73
2024/01/21 05:41:37;;;;;;;7.65;1.30;;;40.20;31.20;;;;;;5076211;28;20183;-73
2024/01/21 05:44:05;;;;;;;3.92;1.42;;;41.30;26.70;;;;;;5069995;28;20238;-69
2024/01/21 05:46:34;;;;;;;6.30;1.85;;;40.70;29.90;;;;;;5068861;28;20190;-75
2024/01/21 05:49:01;;;;;;;5.05;2.08;;;40.10;31.00;;;;;;5079319;28;20187;-79
2024/01/21 05:51:28;;;;;;;4.03;1.50;;;39.40;32.90;;;;;;5082282;28;20556;-73
2024/01/21 05:53:55;;;;;;;4.82;1.42;;;38.40;34.80;;;;;;5081071;28;20187;-74
2024/01/21 05:56:23;;;;;;;8.88;1.70;;;38.90;34.10;;;;;;5077562;28;20183;-79
2024/01/21 05:58:51;;;;;;;5.15;1.45;;;39.60;32.40;;;;;;5076763;28;20716;-79
2024/01/21 06:01:18;;;;;;;6.80;2.08;;;39.60;30.50;;;;;;5089954;28;20228;-81
2024/01/21 06:03:45;;;;;;;9.63;1.65;;;39.70;31.90;;;;;;5078393;28;20186;-79
2024/01/21 06:06:12;;;;;;;9.65;1.83;;;41.20;30.00;;;;;;5078433;28;20198;-77
2024/01/21 06:08:41;;;;;;;5.93;1.83;;;40.60;30.40;;;;;;5076133;28;20187;-76
2024/01/21 06:11:08;;;;;;;6.95;1.52;;;41.30;29.80;;;;;;5077372;28;20175;-81
2024/01/21 06:13:36;;;;;;;5.75;1.58;;;41.20;29.40;;;;;;5061437;28;20277;-79
2024/01/21 06:16:03;;;;;;;7.53;1.70;;;39.80;30.70;;;;;;5060284;28;20253;-78
2024/01/21 06:18:31;;;;;;;9.27;2.00;;;39.90;31.90;;;;;;5075626;28;20305;-78
2024/01/21 06:20:58;;;;;;;5.63;1.80;;;38.90;32.50;;;;;;5077769;28;20186;-78
2024/01/21 06:23:29;;;;;;;5.07;1.63;;;40.70;29.30;;;;;;5075370;28;20211;-81
2024/01/21 06:25:56;;;;;;;6.15;1.65;;;39.90;31.30;;;;;;5084318;28;20178;-84
2024/01/21 06:28:23;;;;;;;3.55;1.40;;;39.00;33.50;;;;;;5075172;28;20191;-76
2024/01/21 06:30:51;;;;;;;3.50;1.05;;;38.90;34.00;;;;;;5076711;28;20601;-75
2024/01/21 06:33:19;;;;;;;5.22;1.60;;;39.50;24.80;;;;;;5079796;28;20182;-79
2024/01/21 06:35:46;;;;;;;6.07;1.35;;;40.50;29.70;;;;;;5080490;28;20227;-76
2024/01/21 06:38:14;;;;;;;4.70;0.75;;;40.70;24.70;;;;;;5074453;28;20602;-75
2024/01/21 06:40:41;;;;;;;7.43;1.42;;;41.20;18.70;;;;;;5083098;28;20277;-75
2024/01/21 06:43:08;;;;;;;6.47;1.73;;;40.90;27.70;;;;;;5075056;28;20175;-76
2024/01/21 06:45:38;;;;;;;6.32;1.75;;;38.30;33.80;;;;;;5074423;28;20179;-76
2024/01/21 06:48:06;;;;;;;6.00;2.10;;;38.40;34.40;;;;;;5068822;28;20179;-76
2024/01/21 06:50:34;;;;;;;5.60;1.92;;;39.10;33.50;;;;;;5080929;28;20175;-77
2024/01/21 06:53:01;;;;;;;7.88;1.80;;;39.20;33.30;;;;;;5077163;28;20182;-74
2024/01/21 06:55:28;;;;;;;6.95;1.98;;;39.30;33.40;;;;;;5073496;28;20179;-74
2024/01/21 06:57:56;;;;;;;4.28;1.50;;;40.30;31.50;;;;;;5072973;28;20222;-73
2024/01/21 07:00:23;;;;;;;4.30;1.60;;;40.10;31.10;;;;;;5071947;28;20543;-74
2024/01/21 07:02:50;;;;;;;4.30;1.58;;;40.80;30.10;;;;;;5073591;28;20438;-73
2024/01/21 07:05:18;;;;;;;4.90;1.88;;;41.00;28.00;;;;;;5075036;28;20681;-74
2024/01/21 07:07:45;;;;;;;5.28;1.77;;;40.60;30.40;;;;;;5073890;28;20240;-73
2024/01/21 07:10:14;;;;;;;7.38;2.00;;;41.20;29.30;;;;;;5084896;28;20679;-75
2024/01/21 07:12:41;;;;;;;6.10;2.40;;;42.00;28.00;;;;;;5084381;28;20664;-76
2024/01/21 07:15:09;;;;;;;10.52;2.22;;;40.10;33.10;;;;;;5073803;28;20182;-77
2024/01/21 07:17:37;;;;;;;7.57;2.50;;;39.10;34.80;;;;;;5067910;28;20774;-75
2024/01/21 07:20:04;;;;;;;11.32;2.60;;;39.40;34.70;;;;;;5055946;28;20183;-73
2024/01/21 07:22:32;;;;;;;9.23;2.10;;;39.80;34.30;;;;;;5074118;28;20183;-72
2024/01/21 07:24:59;;;;;;;8.80;2.58;;;39.60;33.70;;;;;;5072771;28;20179;-76
2024/01/21 07:27:26;;;;;;;6.05;2.00;;;38.80;34.30;;;;;;5079023;28;20546;-76
2024/01/21 07:29:54;;;;;;;5.90;1.63;;;38.40;34.00;;;;;;5070584;28;20321;-76
2024/01/21 07:32:21;;;;;;;6.75;2.00;;;38.60;32.40;;;;;;5079055;28;20194;-75
2024/01/21 07:34:48;;;;;;;5.55;1.77;;;38.80;32.30;;;;;;5069471;28;20251;-72
2024/01/21 07:37:16;;;;;;;7.90;1.90;;;38.30;32.70;;;;;;5077666;28;20642;-73
2024/01/21 07:39:43;;;;;;;7.40;2.20;;;38.40;32.90;;;;;;5064346;28;20253;-73
2024/01/21 07:42:10;;;;;;;8.70;2.20;;;37.80;33.90;;;;;;5061523;28;20380;-77
2024/01/21 07:44:38;;;;;;;7.57;2.00;;;37.20;35.10;;;;;;5072479;28;20175;-74
2024/01/21 07:47:05;;;;;;;7.30;2.15;;;36.50;36.50;;;;;;5068984;28;20175;-82
2024/01/21 07:49:32;;;;;;;6.28;2.08;;;36.00;36.80;;;;;;5067582;28;20558;-76
2024/01/21 07:52:00;;;;;;;9.77;2.80;;;35.80;36.40;;;;;;5071988;28;20210;-73
2024/01/21 07:54:27;;;;;;;6.78;2.53;;;35.60;36.50;;;;;;5068051;28;20301;-80
2024/01/21 07:56:54;;;;;;;6.63;2.10;;;35.60;36.40;;;;;;5060870;28;20182;-81
2024/01/21 07:59:22;;;;;;;6.13;1.75;;;35.40;36.30;;;;;;5056414;28;20245;-80
2024/01/21 08:01:49;;;;;;;3.90;2.35;;;35.20;36.20;;;;;;5053740;28;20203;-79
2024/01/21 08:04:17;;;;;;;6.78;1.85;;;35.30;36.60;;;;;;5068098;28;20687;-76
2024/01/21 08:06:44;;;;;;;4.88;1.80;;;35.30;36.40;;;;;;5067214;28;20266;-80
2024/01/21 08:09:11;;;;;;;6.03;1.98;;;35.30;35.10;;;;;;5053827;28;20540;-82
2024/01/21 08:11:39;;;;;;;7.50;2.00;;;35.10;36.10;;;;;;5057694;28;20613;-73
2024/01/21 08:14:07;;;;;;;4.93;1.77;;;34.70;35.50;;;;;;5055433;28;20237;-73
2024/01/21 08:16:34;;;;;;;10.15;2.65;;;34.60;36.20;;;;;;5069579;28;20221;-75
2024/01/21 08:19:01;;;;;;;4.07;2.00;;;34.40;36.10;;;;;;5063968;28;20541;-77
2024/01/21 08:21:29;;;;;;;5.82;1.70;;;34.20;36.50;;;;;;5058994;28;20182;-74
2024/01/21 08:23:56;;;;;;;7.88;2.00;;;34.00;36.60;;;;;;5059789;28;20184;-75
2024/01/21 08:26:23;;;;;;;6.13;1.65;;;33.90;36.50;;;;;;5060590;28;20215;-74
2024/01/21 08:28:51;;;;;;;6.22;2.15;;;33.80;36.60;;;;;;5074426;28;20218;-74
2024/01/21 08:31:18;;;;;;;4.75;2.03;;;33.90;36.80;;;;;;5063998;28;20637;-75
2024/01/21 08:33:45;;;;;;;9.25;2.20;;;33.60;36.70;;;;;;5068122;28;20806;-76
2024/01/21 08:36:14;;;;;;;5.50;2.05;;;33.50;36.70;;;;;;5066628;28;20298;-69
2024/01/21 08:38:41;;;;;;;5.05;2.22;;;33.30;37.20;;;;;;5062447;28;20222;-71
2024/01/21 08:41:08;;;;;;;8.50;2.40;;;33.30;37.30;;;;;;5063564;28;20645;-70
2024/01/21 08:43:36;;;;;;;9.02;2.45;;;33.20;37.30;;;;;;5071996;28;20236;-73
2024/01/21 08:46:03;;;;;;;6.25;2.20;;;33.10;37.50;;;;;;5070324;28;20705;-72
2024/01/21 08:48:30;;;;;;;7.95;3.20;;;33.00;37.50;;;;;;5080635;28;20198;-72
2024/01/21 08:51:00;;;;;;;7.90;3.60;;;32.90;37.60;;;;;;5077975;28;20175;-75
2024/01/21 08:53:27;;;;;;;10.50;3.83;;;32.80;38.00;;;;;;5071583;28;20657;-73
2024/01/21 08:55:54;;;;;;;6.38;3.08;;;32.70;38.50;;;;;;5066841;28;20186;-73
2024/01/21 08:58:22;;;;;;;7.68;2.50;;;32.50;38.90;;;;;;5073124;28;20214;-72
2024/01/21 09:00:49;;;;;;;10.85;2.30;;;32.40;39.10;;;;;;5072080;28;20676;-72
2024/01/21 09:03:16;;;;;;;7.60;2.97;;;32.30;39.50;;;;;;5072237;28;20190;-73
2024/01/21 09:05:44;;;;;;;6.55;2.42;;;32.20;39.70;;;;;;5072039;28;20266;-72
2024/01/21 09:08:11;;;;;;;9.38;2.65;;;32.10;40.20;;;;;;5073553;28;20175;-75
2024/01/21 09:10:38;;;;;;;5.95;2.75;;;32.00;40.20;;;;;;5069489;28;20175;-72
2024/01/21 09:13:08;;;;;;;4.30;2.13;;;31.90;40.50;;;;;;5069194;28;20816;-72
2024/01/21 09:15:35;;;;;;;9.65;2.88;;;31.90;40.90;;;;;;5078803;28;20188;-72
2024/01/21 09:18:02;;;;;;;8.45;2.90;;;31.70;41.50;;;;;;5076376;28;20665;-73
2024/01/21 09:20:30;;;;;;;8.18;2.60;;;31.60;42.00;;;;;;5074821;28;20180;-73
2024/01/21 09:22:57;;;;;;;8.00;2.70;;;31.40;42.50;;;;;;5078198;28;20210;-73
2024/01/21 09:25:24;;;;;;;5.63;2.60;;;31.40;42.70;;;;;;5073826;28;20274;-71
2024/01/21 09:27:52;;;;;;;10.77;3.10;;;31.30;43.10;;;;;;5076120;28;20255;-72
2024/01/21 09:30:20;;;;;;;8.93;3.05;;;31.20;43.70;;;;;;5071595;28;20718;-71
2024/01/21 09:32:47;;;;;;;8.13;3.15;;;31.20;43.70;;;;;;5075385;28;20224;-71
2024/01/21 09:35:15;;;;;;;5.88;2.53;;;31.10;44.00;;;;;;5074941;28;20207;-70
2024/01/21 09:37:42;;;;;;;8.93;3.00;;;31.00;44.30;;;;;;5075707;28;20237;-73
2024/01/21 09:40:11;;;;;;;12.13;2.80;;;30.90;44.30;;;;;;5073758;28;20187;-69
2024/01/21 09:42:38;;;;;;;7.97;2.33;;;30.90;44.80;;;;;;5066525;28;20199;-71
2024/01/21 09:45:07;;;;;;;6.82;2.42;;;30.90;44.90;;;;;;5075250;28;20202;-74
2024/01/21 09:47:37;;;;;;;9.20;2.90;;;30.80;44.80;;;;;;5075760;28;20222;-71
2024/01/21 09:50:05;;;;;;;7.00;2.38;;;30.80;45.10;;;;;;5076990;28;20553;-70
2024/01/21 09:52:33;;;;;;;8.65;2.80;;;30.80;45.40;;;;;;5083120;28;20248;-71
2024/01/21 09:55:00;;;;;;;5.70;2.40;;;30.70;45.70;;;;;;5074570;28;20189;-72
2024/01/21 09:57:28;;;;;;;7.22;2.45;;;30.70;45.50;;;;;;5070195;28;20318;-72
2024/01/21 09:59:55;;;;;;;7.80;2.58;;;30.70;45.30;;;;;;5075777;28;20673;-72
2024/01/21 10:02:25;;;;;;;6.70;2.20;;;30.70;45.50;;;;;;5083262;28;20190;-73
2024/01/21 10:04:54;;;;;;;4.57;2.17;;;30.70;45.60;;;;;;5064127;28;20659;-72
2024/01/21 10:07:21;;;;;;;7.97;2.43;;;30.60;45.20;;;;;;5074257;28;20284;-70
2024/01/21 10:09:55;;;;;;;7.68;2.30;;;30.60;45.60;;;;;;5074197;28;20229;-71
2024/01/21 10:12:26;;;;;;;4.68;2.13;;;30.60;45.50;;;;;;5063976;28;20201;-71
2024/01/21 10:14:54;;;;;;;9.32;2.25;;;30.60;45.60;;;;;;5080110;28;20187;-70
2024/01/21 10:17:25;;;;;;;6.65;2.63;;;30.50;45.90;;;;;;5079444;28;20274;-72
2024/01/21 10:19:55;;;;;;;8.23;2.92;;;30.40;46.20;;;;;;5073988;28;20637;-69
2024/01/21 10:22:26;;;;;;;9.07;2.70;;;30.40;46.30;;;;;;5074437;28;20273;-72
2024/01/21 10:24:53;;;;;;;12.57;2.88;;;30.30;46.80;;;;;;5074084;28;20565;-72
2024/01/21 10:27:21;;;;;;;10.30;2.85;;;30.30;47.40;;;;;;5074529;28;20347;-72
2024/01/21 10:29:48;;;;;;;8.25;2.25;;;30.20;47.70;;;;;;5075385;28;20179;-71
2024/01/21 10:32:20;;;;;;;6.95;2.60;;;30.20;48.30;;;;;;5078012;28;20229;-70
2024/01/21 10:34:52;;;;;;;4.53;2.33;;;30.10;48.40;;;;;;5074452;28;20618;-70
2024/01/21 10:37:19;;;;;;;8.57;2.73;;;30.00;48.70;;;;;;5074025;28;20191;-70
2024/01/21 10:39:48;;;;;;;7.07;2.33;;;29.90;48.80;;;;;;5073530;28;20215;-68
2024/01/21 10:42:16;;;;;;;10.63;2.60;;;29.90;49.00;;;;;;5066933;28;20187;-72
2024/01/21 10:44:44;;;;;;;43.83;8.07;;;29.80;49.00;;;;;;5068565;28;20203;-70
2024/01/21 10:47:15;;;;;;;50.15;10.55;;;29.30;55.60;;;;;;5080871;28;20305;-71
2024/01/21 10:49:44;;;;;;;58.17;10.43;;;28.20;62.50;;;;;;5066321;28;20183;-71
2024/01/21 10:52:14;;;;;;;65.60;11.23;;;26.90;67.90;;;;;;5075986;28;20175;-71
2024/01/21 10:54:42;;;;;;;59.23;11.10;;;26.50;69.90;;;;;;5075127;28;20202;-70
2024/01/21 10:57:09;;;;;;;57.33;10.57;;;26.20;71.20;;;;;;5073356;28;20543;-69
2024/01/21 10:59:38;;;;;;;59.53;10.50;;;25.90;72.30;;;;;;5073665;28;20302;-71
2024/01/21 11:02:06;;;;;;;51.07;10.37;;;25.60;72.50;;;;;;5073330;28;20266;-72
2024/01/21 11:04:35;;;;;;;52.63;9.83;;;25.50;73.10;;;;;;5073976;28;20179;-70
2024/01/21 11:07:08;;;;;;;53.57;11.97;;;25.40;73.30;;;;;;5072362;28;20275;-69
2024/01/21 11:09:36;;;;;;;59.53;10.50;;;25.20;73.10;;;;;;5073349;28;20202;-70
2024/01/21 11:12:04;;;;;;;61.27;10.83;;;25.00;73.80;;;;;;5065690;28;20175;-71
2024/01/21 11:14:36;;;;;;;52.30;11.47;;;24.90;73.70;;;;;;5068486;28;20648;-70
2024/01/21 11:17:05;;;;;;;54.97;9.87;;;24.80;74.00;;;;;;5072662;28;20186;-68
2024/01/21 11:19:54;;;;;;;48.23;9.80;;;24.80;74.30;;;;;;5074305;28;20309;-72
2024/01/21 11:22:23;;;;;;;58.77;10.70;;;24.60;74.60;;;;;;5067488;28;20645;-72
2024/01/21 11:24:53;;;;;;;50.70;10.57;;;24.70;74.50;;;;;;5072612;28;20289;-70
2024/01/21 11:27:30;;;;;;;57.87;12.07;;;24.60;75.00;;;;;;5069058;28;20191;-70
2024/01/21 11:30:02;;;;;;;54.10;10.73;;;24.50;75.00;;;;;;5069292;28;20179;-73
2024/01/21 11:32:30;;;;;;;46.77;10.17;;;24.40;75.20;;;;;;5074518;28;20185;-69
2024/01/21 11:35:16;;;;;;;55.10;10.10;;;24.30;75.70;;;;;;5073733;28;20281;-70
2024/01/21 11:37:52;;;;;;;57.93;11.53;;;24.30;75.90;;;;;;5071630;28;20203;-70
2024/01/21 11:40:19;;;;;;;63.13;10.00;;;24.20;76.20;;;;;;5072667;28;21147;-71
2024/01/21 11:42:50;;;;;;;59.03;10.83;;;24.10;76.60;;;;;;5072212;28;20229;-72
2024/01/21 11:45:17;;;;;;;57.93;10.33;;;24.00;76.90;;;;;;5064522;28;20235;-71
2024/01/21 11:47:46;;;;;;;59.60;10.67;;;24.00;76.90;;;;;;5072708;28;20233;-69
2024/01/21 11:50:14;;;;;;;51.77;10.97;;;24.10;76.80;;;;;;5071426;28;20184;-68
2024/01/21 11:52:41;;;;;;;57.67;11.40;;;23.90;77.40;;;;;;5072158;28;20178;-69
2024/01/21 11:55:11;;;;;;;55.20;11.57;;;24.00;78.00;;;;;;5072404;28;20175;-71
2024/01/21 11:57:39;;;;;;;52.53;9.93;;;24.00;77.80;;;;;;5072377;28;20254;-71
2024/01/21 12:00:07;;;;;;;47.70;11.13;;;23.90;77.50;;;;;;5071851;28;20179;-70
2024/01/21 12:02:36;;;;;;;48.27;9.97;;;23.90;77.90;;;;;;5072328;28;20286;-71
2024/01/21 12:05:04;;;;;;;51.47;11.43;;;23.90;77.80;;;;;;5068770;28;20224;-72
2024/01/21 12:07:32;;;;;;;46.03;9.73;;;23.80;77.60;;;;;;5071981;28;20210;-71
2024/01/21 12:10:01;;;;;;;46.33;10.10;;;23.80;77.90;;;;;;5071677;28;20504;-71
2024/01/21 12:12:28;;;;;;;45.30;9.87;;;23.80;77.60;;;;;;5070971;28;20270;-71
2024/01/21 12:14:55;;;;;;;44.97;11.17;;;23.80;77.50;;;;;;5069176;28;20270;-68
2024/01/21 12:17:23;;;;;;;53.93;9.27;;;23.80;77.20;;;;;;5064393;28;20195;-71
2024/01/21 12:19:50;;;;;;;49.23;10.80;;;23.90;77.30;;;;;;5071840;28;20195;-70
2024/01/21 12:22:17;;;;;;;46.83;11.13;;;23.90;76.80;;;;;;5072062;28;20180;-70
2024/01/21 12:24:45;;;;;;;51.50;10.73;;;23.80;76.50;;;;;;5072249;28;20187;-72
2024/01/21 12:27:15;;;;;;;53.03;10.90;;;23.70;76.50;;;;;;5069268;28;20183;-71
2024/01/21 12:29:42;;;;;;;49.10;10.83;;;23.70;76.50;;;;;;5065769;28;20187;-70
2024/01/21 12:32:11;;;;;;;50.67;10.83;;;23.70;76.60;;;;;;5071472;28;20262;-71
2024/01/21 12:34:38;;;;;;;47.53;10.63;;;23.70;76.50;;;;;;5071845;28;20250;-71
2024/01/21 12:37:06;;;;;;;46.20;10.50;;;23.70;76.50;;;;;;5071592;28;20269;-70
2024/01/21 12:39:34;;;;;;;41.20;9.40;;;23.60;76.70;;;;;;5071529;28;20248;-69
2024/01/21 12:42:01;;;;;;;50.87;10.30;;;23.80;76.60;;;;;;5071355;28;20186;-70
2024/01/21 12:44:29;;;;;;;42.77;9.50;;;23.70;76.70;;;;;;5068112;28;20191;-71
2024/01/21 12:46:56;;;;;;;49.67;10.10;;;23.70;76.60;;;;;;5070106;28;20529;-72